Bookmark and Share
Track history (hours):
 

Shin Mei Maru

Last reported at 2014-Apr-25 04:24 UTC. Time now 2014-Apr-25 05:54 UTC.
Position N 34°37' E 135°25'.

Length 160 m; draft 6.8 m.

Type: Cargo ship. MMSI: 431100922.

NotesDate/timePositionNaut miles runAvg speedWind from/ knotsBaromVisibWave heightAir tempDewpointWater temp
2014-Apr-25 04:24N 34°37' E 135°25'0 0.0
2014-Apr-25 03:30N 34°37' E 135°25'0 0.0
2014-Apr-25 02:30N 34°37' E 135°25'0 0.0
2014-Apr-25 01:30N 34°37' E 135°25'6 6.5
2014-Apr-25 00:33N 34°33' E 135°19'1817.9
2014-Apr-24 23:33N 34°21' E 135°03'1717.0
2014-Apr-24 22:33N 34°04' E 134°59'21113.9
2014-Apr-24 07:25N 34°43' E 139°10'1617.7
2014-Apr-24 06:29N 34°55' E 139°24'1718.5
2014-Apr-24 05:33N 35°05' E 139°41'1313.3
2014-Apr-24 04:33N 35°19' E 139°44'1615.5
2014-Apr-24 03:33N 35°33' E 139°50'6 6.4
2014-Apr-24 02:33N 35°38' E 139°46'0 0.0
2014-Apr-24 01:29N 35°38' E 139°46'0 0.0
2014-Apr-24 00:23N 35°38' E 139°46'0 0.0
2014-Apr-23 23:32N 35°38' E 139°46'0 0.0
2014-Apr-23 22:32N 35°38' E 139°46'7 7.1
2014-Apr-23 21:33N 35°33' E 139°51'1514.7
2014-Apr-23 20:33N 35°19' E 139°44'1313.4
2014-Apr-23 19:34N 35°06' E 139°47'1614.8
2014-Apr-23 18:30N 34°51' E 139°51'1617.5
2014-Apr-23 17:33N 34°57' E 140°10'1717.3
2014-Apr-23 16:33N 35°06' E 140°28'1818.1
2014-Apr-23 15:33N 35°21' E 140°41'1818.4
2014-Apr-23 14:33N 35°36' E 140°53'1918.7
2014-Apr-23 13:33N 35°54' E 141°01'  
2014-Apr-19 16:33N 35°24' E 140°46'1818.0
2014-Apr-19 15:33N 35°10' E 140°31'1717.5
2014-Apr-19 14:33N 34°59' E 140°15'2017.6
2014-Apr-19 13:27N 34°51' E 139°53'1415.7
2014-Apr-19 12:34N 35°02' E 139°43'1615.9
2014-Apr-19 11:34N 35°18' E 139°44'1515.0
2014-Apr-19 10:34N 35°32' E 139°51'8 7.5
2014-Apr-19 09:33N 35°38' E 139°46'0 0.0
2014-Apr-19 08:33N 35°38' E 139°46'0 0.0
2014-Apr-19 07:33N 35°38' E 139°46'0 0.0
2014-Apr-19 06:33N 35°38' E 139°46'0 0.0
2014-Apr-19 05:33N 35°38' E 139°46'6 6.4
2014-Apr-19 04:34N 35°33' E 139°51'1414.1
2014-Apr-19 03:33N 35°20' E 139°44'1110.9
2014-Apr-19 02:33N 35°09' E 139°46'1817.4
2014-Apr-19 01:32N 34°56' E 139°31'23116.5
2014-Apr-18 11:32N 34°01' E 134°59'2119.7
2014-Apr-18 10:29N 34°22' E 135°01'1819.3
2014-Apr-18 09:33N 34°33' E 135°18'7 6.8
2014-Apr-18 08:33N 34°37' E 135°25'0 0.0
2014-Apr-18 07:28N 34°37' E 135°25'0 0.0
2014-Apr-18 06:16N 34°37' E 135°25'0 0.0
2014-Apr-18 05:28N 34°37' E 135°25'0 0.0
2014-Apr-18 04:22N 34°37' E 135°25'0 0.0
2014-Apr-18 01:28N 34°37' E 135°25'4 4.5
2014-Apr-18 00:33N 34°35' E 135°20'1717.5
2014-Apr-17 23:33N 34°23' E 135°05'1616.2
2014-Apr-17 22:33N 34°08' E 134°59'22513.9
2014-Apr-17 06:21N 34°57' E 139°26'1417.5
2014-Apr-17 05:33N 35°04' E 139°40'1414.3
2014-Apr-17 04:34N 35°18' E 139°44'1515.0
2014-Apr-17 03:33N 35°32' E 139°51'7 7.0
2014-Apr-17 02:30N 35°38' E 139°46'0 0.0
2014-Apr-17 01:33N 35°38' E 139°46'0 0.0
2014-Apr-17 00:33N 35°38' E 139°46'0 0.0
2014-Apr-16 23:33N 35°38' E 139°46'0 0.0
2014-Apr-16 22:27N 35°38' E 139°46'5 6.0
2014-Apr-16 21:33N 35°34' E 139°50'1414.0
2014-Apr-16 20:32N 35°20' E 139°44'1414.1
2014-Apr-16 19:34N 35°06' E 139°45'1515.4
2014-Apr-16 18:33N 34°51' E 139°50'1615.8
2014-Apr-16 17:34N 34°57' E 140°08'1716.8
2014-Apr-16 16:34N 35°05' E 140°25'1816.9
2014-Apr-16 15:31N 35°19' E 140°39'1717.1
2014-Apr-16 14:33N 35°32' E 140°50'1817.6
2014-Apr-16 13:34N 35°49' E 140°57'1818.5
2014-Apr-16 12:34N 36°07' E 141°02'  

Dump ship's entire track history

sailing weather and tide predictions

Shin Mei Maru — JG5617 — position and weather